createdAt,value
2023-04-09T00:00:05.624Z,3
2023-04-09T00:04:01.785Z,4
2023-04-09T00:08:01.783Z,3
2023-04-09T00:12:01.820Z,3
2023-04-09T00:16:01.778Z,6
2023-04-09T00:20:01.700Z,3
2023-04-09T00:24:01.909Z,3
2023-04-09T00:28:02.157Z,4
2023-04-09T00:32:01.399Z,6
2023-04-09T00:36:01.537Z,6
2023-04-09T00:40:01.775Z,7
2023-04-09T00:44:01.892Z,4
2023-04-09T00:48:02.080Z,4
2023-04-09T00:52:01.275Z,4
2023-04-09T00:56:01.323Z,4
2023-04-09T01:00:04.703Z,4
2023-04-09T01:04:01.919Z,4
2023-04-09T01:08:02.013Z,3
2023-04-09T01:12:01.834Z,7
2023-04-09T01:16:01.971Z,4
2023-04-09T01:20:02.128Z,3
2023-04-09T01:24:02.135Z,6
2023-04-09T01:28:02.055Z,7
2023-04-09T01:32:01.899Z,4
2023-04-09T01:36:01.747Z,4
2023-04-09T01:40:01.847Z,4
2023-04-09T01:44:02.007Z,4
2023-04-09T01:48:01.937Z,6
2023-04-09T01:52:01.918Z,7
2023-04-09T01:56:01.939Z,4
2023-04-09T02:00:04.721Z,6
2023-04-09T02:04:01.949Z,7
2023-04-09T02:08:01.957Z,6
2023-04-09T02:12:02.056Z,6
2023-04-09T02:16:02.054Z,6
2023-04-09T02:20:02.180Z,4
2023-04-09T02:24:02.087Z,6
2023-04-09T02:28:02.049Z,4
2023-04-09T02:32:01.928Z,4
2023-04-09T02:36:01.891Z,7
2023-04-09T02:40:02.006Z,6
2023-04-09T02:44:02.023Z,3
2023-04-09T02:48:02.042Z,4
2023-04-09T02:52:02.001Z,7
2023-04-09T02:56:02.042Z,3
2023-04-09T03:00:04.620Z,7
2023-04-09T03:04:01.990Z,6
2023-04-09T03:08:02.045Z,6
2023-04-09T03:12:01.258Z,6
2023-04-09T03:16:01.386Z,6
2023-04-09T03:20:01.523Z,3
2023-04-09T03:24:01.660Z,7
2023-04-09T03:28:01.666Z,7
2023-04-09T03:32:01.809Z,3
2023-04-09T03:36:01.980Z,6
2023-04-09T03:40:02.099Z,9
2023-04-09T03:44:01.277Z,6
2023-04-09T03:48:01.434Z,7
2023-04-09T03:52:01.482Z,6
2023-04-09T03:56:01.556Z,6
2023-04-09T04:00:04.504Z,6
2023-04-09T04:04:01.967Z,7
2023-04-09T04:08:02.023Z,7
2023-04-09T04:12:02.282Z,4
2023-04-09T04:16:02.219Z,7
2023-04-09T04:20:01.529Z,3
2023-04-09T04:24:01.814Z,3
2023-04-09T04:28:01.688Z,7
2023-04-09T04:32:02.067Z,4
2023-04-09T04:36:02.189Z,4
2023-04-09T04:40:02.229Z,4
2023-04-09T04:44:02.244Z,6
2023-04-09T04:48:02.277Z,6
2023-04-09T04:52:02.140Z,4
2023-04-09T04:56:01.996Z,4
2023-04-09T05:00:04.617Z,9
2023-04-09T05:04:01.771Z,4
2023-04-09T05:08:01.705Z,4
2023-04-09T05:12:01.720Z,6
2023-04-09T05:16:02.016Z,7
2023-04-09T05:20:02.278Z,7
2023-04-09T05:24:02.219Z,6
2023-04-09T05:28:02.118Z,6
2023-04-09T05:32:02.190Z,6
2023-04-09T05:36:01.428Z,6
2023-04-09T05:40:01.507Z,6
2023-04-09T05:44:01.770Z,6
2023-04-09T05:48:01.953Z,7
2023-04-09T05:52:01.890Z,6
2023-04-09T05:56:02.151Z,6
2023-04-09T06:00:01.334Z,7
2023-04-09T06:04:02.666Z,6
2023-04-09T06:08:01.468Z,6
2023-04-09T06:12:01.508Z,4
2023-04-09T06:16:01.453Z,6
2023-04-09T06:20:01.657Z,6
2023-04-09T06:24:01.871Z,7
2023-04-09T06:28:01.778Z,7
2023-04-09T06:32:02.008Z,7
2023-04-09T06:36:02.229Z,4
2023-04-09T06:40:02.288Z,6
2023-04-09T06:44:01.399Z,6
2023-04-09T06:48:01.496Z,6
2023-04-09T06:52:01.628Z,3
2023-04-09T06:56:01.764Z,3
2023-04-09T07:00:05.298Z,7
2023-04-09T07:04:01.447Z,4
2023-04-09T07:08:01.665Z,4
2023-04-09T07:12:01.596Z,4
2023-04-09T07:16:01.667Z,7
2023-04-09T07:20:01.778Z,7
2023-04-09T07:24:02.111Z,7
2023-04-09T07:28:02.167Z,7
2023-04-09T07:32:01.452Z,7
2023-04-09T07:36:01.523Z,7
2023-04-09T07:40:01.425Z,9
2023-04-09T07:44:01.672Z,9
2023-04-09T07:48:01.990Z,4
2023-04-09T07:52:01.913Z,7
2023-04-09T07:56:02.095Z,7
2023-04-09T08:00:06.116Z,7
2023-04-09T08:04:01.427Z,7
2023-04-09T08:08:02.223Z,7
2023-04-09T08:12:01.346Z,7
2023-04-09T08:16:01.630Z,7
2023-04-09T08:20:01.625Z,7
2023-04-09T08:24:01.818Z,7
2023-04-09T08:28:01.835Z,6
2023-04-09T08:32:02.022Z,6
2023-04-09T08:36:03.356Z,7
2023-04-09T08:40:02.231Z,9
2023-04-09T08:44:01.282Z,9
2023-04-09T08:48:01.491Z,7
2023-04-09T08:52:01.315Z,7
2023-04-09T08:56:01.491Z,7
2023-04-09T09:00:05.612Z,7
2023-04-09T09:04:01.709Z,7
2023-04-09T09:08:01.607Z,7
2023-04-09T09:12:01.753Z,7
2023-04-09T09:16:02.167Z,7
2023-04-09T09:20:01.373Z,7
2023-04-09T09:24:01.596Z,7
2023-04-09T09:28:01.864Z,7
2023-04-09T09:32:01.773Z,7
2023-04-09T09:36:02.051Z,7
2023-04-09T09:40:02.362Z,7
2023-04-09T09:44:02.100Z,7
2023-04-09T09:48:02.238Z,7
2023-04-09T09:52:01.259Z,7
2023-04-09T09:56:01.572Z,7
2023-04-09T10:00:04.635Z,6
2023-04-09T10:04:01.707Z,7
2023-04-09T10:08:01.969Z,7
2023-04-09T10:12:02.004Z,7
2023-04-09T10:16:01.816Z,6
2023-04-09T10:20:01.951Z,6
2023-04-09T10:24:01.932Z,7
2023-04-09T10:28:02.096Z,7
2023-04-09T10:32:02.055Z,7
2023-04-09T10:36:02.211Z,6
2023-04-09T10:40:02.105Z,7
2023-04-09T10:44:02.103Z,7
2023-04-09T10:48:02.404Z,9
2023-04-09T10:52:02.107Z,9
2023-04-09T10:56:02.312Z,9
2023-04-09T11:00:06.026Z,7
2023-04-09T11:04:02.058Z,10
2023-04-09T11:08:02.140Z,10
2023-04-09T11:12:02.371Z,10
2023-04-09T11:16:01.549Z,6
2023-04-09T11:20:01.428Z,6
2023-04-09T11:24:01.374Z,9
2023-04-09T11:28:01.420Z,7
2023-04-09T11:32:01.708Z,7
2023-04-09T11:36:01.767Z,7
2023-04-09T11:40:01.832Z,9
2023-04-09T11:44:01.921Z,9
2023-04-09T11:48:02.092Z,7
2023-04-09T11:52:02.143Z,12
2023-04-09T11:56:02.156Z,12
2023-04-09T12:00:05.602Z,10
2023-04-09T12:04:01.947Z,10
2023-04-09T12:08:01.910Z,10
2023-04-09T12:12:02.125Z,12
2023-04-09T12:16:02.116Z,9
2023-04-09T12:20:02.293Z,9
2023-04-09T12:24:01.516Z,7
2023-04-09T12:28:01.548Z,10
2023-04-09T12:32:01.615Z,10
2023-04-09T12:36:01.801Z,13
2023-04-09T12:40:01.828Z,10
2023-04-09T12:44:01.786Z,10
2023-04-09T12:48:01.939Z,10
2023-04-09T12:52:01.931Z,10
2023-04-09T12:56:02.046Z,10
2023-04-09T13:00:04.741Z,10
2023-04-09T13:04:01.855Z,10
2023-04-09T13:08:01.947Z,10
2023-04-09T13:12:02.150Z,10
2023-04-09T13:16:01.905Z,12
2023-04-09T13:20:01.296Z,12
2023-04-09T13:24:02.162Z,12
2023-04-09T13:28:01.909Z,10
2023-04-09T13:32:02.082Z,10
2023-04-09T13:36:01.917Z,10
2023-04-09T13:40:01.920Z,10
2023-04-09T13:44:02.048Z,10
2023-04-09T13:48:01.982Z,12
2023-04-09T13:52:01.925Z,12
2023-04-09T13:56:01.892Z,12
2023-04-09T14:00:07.041Z,13
2023-04-09T14:04:02.164Z,16
2023-04-09T14:08:02.160Z,16
2023-04-09T14:12:02.019Z,12
2023-04-09T14:16:02.070Z,11
2023-04-09T14:20:02.070Z,11
2023-04-09T14:24:01.914Z,12
2023-04-09T14:28:01.824Z,9
2023-04-09T14:32:01.826Z,9
2023-04-09T14:36:01.771Z,14
2023-04-09T14:40:01.709Z,11
2023-04-09T14:44:01.669Z,11
2023-04-09T14:48:01.580Z,11
2023-04-09T14:52:01.534Z,11
2023-04-09T14:56:01.706Z,11
2023-04-09T15:00:04.741Z,11
2023-04-09T15:04:01.782Z,10
2023-04-09T15:08:01.757Z,10
2023-04-09T15:12:01.819Z,14
2023-04-09T15:16:01.744Z,11
2023-04-09T15:20:02.037Z,11
2023-04-09T15:24:01.983Z,11
2023-04-09T15:28:01.966Z,11
2023-04-09T15:32:02.145Z,11
2023-04-09T15:36:02.284Z,11
2023-04-09T15:40:02.218Z,13
2023-04-09T15:44:01.901Z,13
2023-04-09T15:48:01.754Z,11
2023-04-09T15:52:01.719Z,11
2023-04-09T15:56:01.673Z,11
2023-04-09T16:00:05.381Z,17
2023-04-09T16:04:01.498Z,10
2023-04-09T16:08:01.468Z,10
2023-04-09T16:12:01.527Z,14
2023-04-09T16:16:01.603Z,11
2023-04-09T16:20:01.510Z,11
2023-04-09T16:24:01.682Z,11
2023-04-09T16:28:01.543Z,15
2023-04-09T16:32:01.574Z,15
2023-04-09T16:36:01.739Z,11
2023-04-09T16:40:01.825Z,17
2023-04-09T16:44:01.868Z,17
2023-04-09T16:48:01.865Z,13
2023-04-09T16:52:01.993Z,13
2023-04-09T16:56:02.035Z,13
2023-04-09T17:00:05.125Z,11
2023-04-09T17:04:02.178Z,11
2023-04-09T17:08:01.906Z,11
2023-04-09T17:12:02.075Z,11
2023-04-09T17:16:01.989Z,16
2023-04-09T17:20:02.071Z,16
2023-04-09T17:24:01.252Z,13
2023-04-09T17:28:02.163Z,11
2023-04-09T17:32:02.144Z,11
2023-04-09T17:36:02.196Z,15
2023-04-09T17:40:02.219Z,9
2023-04-09T17:44:01.304Z,9
2023-04-09T17:48:01.328Z,13
2023-04-09T17:52:02.216Z,15
2023-04-09T17:56:01.567Z,15
2023-04-09T18:00:05.180Z,15
2023-04-09T18:04:01.849Z,13
2023-04-09T18:08:01.738Z,13
2023-04-09T18:12:01.887Z,13
2023-04-09T18:16:02.006Z,10
2023-04-09T18:20:01.611Z,10
2023-04-09T18:24:01.562Z,13
2023-04-09T18:28:01.596Z,10
2023-04-09T18:32:01.868Z,10
2023-04-09T18:36:02.006Z,10
2023-04-09T18:40:02.930Z,10
2023-04-09T18:44:01.519Z,10
2023-04-09T18:48:01.766Z,12
2023-04-09T18:52:01.742Z,12
2023-04-09T18:56:02.061Z,12
2023-04-09T19:00:07.307Z,12
2023-04-09T19:04:01.711Z,13
2023-04-09T19:08:01.934Z,13
2023-04-09T20:08:02.181Z,12
2023-04-09T20:10:01.671Z,7
2023-04-09T20:12:02.000Z,7
2023-04-09T20:14:01.461Z,7
2023-04-09T20:16:01.910Z,7
2023-04-09T20:18:01.549Z,7
2023-04-09T20:20:01.945Z,7
2023-04-09T20:22:01.372Z,10
2023-04-09T20:24:01.901Z,10
2023-04-09T20:26:01.458Z,10
2023-04-09T20:28:01.946Z,10
2023-04-09T20:30:01.516Z,10
2023-04-09T20:32:02.084Z,10
2023-04-09T20:34:01.616Z,9
2023-04-09T20:36:02.357Z,9
2023-04-09T20:38:01.824Z,9
2023-04-09T20:40:01.371Z,10
2023-04-09T20:42:01.812Z,10
2023-04-09T20:44:01.428Z,10
2023-04-09T20:46:01.937Z,10
2023-04-09T20:48:01.621Z,10
2023-04-09T20:50:02.014Z,10
2023-04-09T20:52:01.394Z,12
2023-04-09T20:54:02.048Z,12
2023-04-09T20:56:01.641Z,12
2023-04-09T20:58:02.160Z,7
2023-04-09T21:00:01.936Z,7
2023-04-09T21:02:02.329Z,7
2023-04-09T21:04:01.861Z,9
2023-04-09T21:06:01.519Z,9
2023-04-09T21:08:02.181Z,9
2023-04-09T21:10:01.876Z,7
2023-04-09T21:12:01.250Z,7
2023-04-09T21:14:01.828Z,7
2023-04-09T21:16:01.276Z,12
2023-04-09T21:18:01.950Z,12
2023-04-09T21:20:01.601Z,12
2023-04-09T21:22:02.129Z,9
2023-04-09T21:24:01.724Z,9
2023-04-09T21:26:02.318Z,9
2023-04-09T21:30:02.301Z,9
2023-04-09T21:32:01.648Z,9
2023-04-09T21:34:01.281Z,10
2023-04-09T21:36:01.756Z,10
2023-04-09T21:38:02.221Z,10
2023-04-09T21:40:01.795Z,9
2023-04-09T21:42:01.433Z,9
2023-04-09T21:44:01.809Z,9
2023-04-09T21:46:01.448Z,10
2023-04-09T21:48:02.063Z,10
2023-04-09T21:50:01.551Z,10
2023-04-09T21:52:02.061Z,10
2023-04-09T21:54:01.682Z,10
2023-04-09T21:56:02.932Z,10
2023-04-09T21:58:01.773Z,9
2023-04-09T22:00:01.731Z,9
2023-04-09T22:02:02.083Z,9
2023-04-09T22:04:01.671Z,7
2023-04-09T22:06:02.141Z,7
2023-04-09T22:08:01.552Z,7
2023-04-09T22:10:02.176Z,7
2023-04-09T22:12:01.577Z,7
2023-04-09T22:14:02.270Z,7
2023-04-09T22:16:01.677Z,9
2023-04-09T22:18:02.281Z,9
2023-04-09T22:20:01.690Z,9
2023-04-09T22:22:02.226Z,9
2023-04-09T22:24:01.510Z,9
2023-04-09T22:26:01.953Z,9
2023-04-09T22:28:01.491Z,9
2023-04-09T22:30:02.253Z,9
2023-04-09T22:32:01.669Z,9
2023-04-09T22:34:10.068Z,10
2023-04-09T22:38:02.213Z,10
2023-04-09T22:40:01.662Z,7
2023-04-09T22:42:01.292Z,7
2023-04-09T22:44:01.799Z,7
2023-04-09T22:46:01.456Z,9
2023-04-09T22:48:02.002Z,9
2023-04-09T22:50:01.583Z,9
2023-04-09T22:52:02.163Z,10
2023-04-09T22:54:01.489Z,10
2023-04-09T22:56:01.985Z,10
2023-04-09T22:58:01.501Z,7
2023-04-09T23:00:05.483Z,7
2023-04-09T23:04:01.953Z,9
2023-04-09T23:06:01.583Z,9
2023-04-09T23:08:01.970Z,9
2023-04-09T23:10:01.515Z,7
2023-04-09T23:12:02.115Z,7
2023-04-09T23:14:01.525Z,7
2023-04-09T23:16:02.115Z,10
2023-04-09T23:18:01.843Z,10
2023-04-09T23:20:01.417Z,10
2023-04-09T23:22:01.771Z,9
2023-04-09T23:24:01.317Z,9
2023-04-09T23:26:01.857Z,9
2023-04-09T23:28:02.277Z,10
2023-04-09T23:30:01.752Z,10
2023-04-09T23:32:01.281Z,10
2023-04-09T23:34:01.770Z,9
2023-04-09T23:36:02.253Z,9
2023-04-09T23:38:01.785Z,9
2023-04-09T23:40:02.249Z,9
2023-04-09T23:42:01.828Z,9
2023-04-09T23:44:01.398Z,9
2023-04-09T23:46:02.008Z,9
2023-04-09T23:48:01.634Z,9
2023-04-09T23:50:02.075Z,9
2023-04-09T23:52:01.528Z,10
2023-04-09T23:54:02.108Z,10
2023-04-09T23:56:01.540Z,10
2023-04-09T23:58:02.059Z,9
